sensor_id;sensor_type;location;lat;lon;timestamp;pressure;altitude;pressure_sealevel;temperature;humidity
75867;BME280;64513;56.258;43.980;2022-11-15T00:01:11;99750.95;;;8.32;78.02
75867;BME280;64513;56.258;43.980;2022-11-15T00:03:39;99746.48;;;8.32;77.95
75867;BME280;64513;56.258;43.980;2022-11-15T00:06:08;99741.22;;;8.32;77.98
75867;BME280;64513;56.258;43.980;2022-11-15T00:08:36;99739.59;;;8.31;77.93
75867;BME280;64513;56.258;43.980;2022-11-15T00:11:04;99735.95;;;8.32;77.93
75867;BME280;64513;56.258;43.980;2022-11-15T00:13:33;99729.88;;;8.32;77.90
75867;BME280;64513;56.258;43.980;2022-11-15T00:16:01;99727.25;;;8.32;77.87
75867;BME280;64513;56.258;43.980;2022-11-15T00:18:30;99732.52;;;8.32;77.84
75867;BME280;64513;56.258;43.980;2022-11-15T00:23:47;99735.95;;;8.32;77.82
75867;BME280;64513;56.258;43.980;2022-11-15T00:26:15;99734.33;;;8.31;77.76
75867;BME280;64513;56.258;43.980;2022-11-15T00:28:44;99734.33;;;8.31;77.78
75867;BME280;64513;56.258;43.980;2022-11-15T00:31:13;99733.54;;;8.31;77.82
75867;BME280;64513;56.258;43.980;2022-11-15T00:33:42;99721.16;;;8.31;77.79
75867;BME280;64513;56.258;43.980;2022-11-15T00:36:11;99723.00;;;8.31;77.79
75867;BME280;64513;56.258;43.980;2022-11-15T00:38:40;99731.47;;;8.33;77.75
75867;BME280;64513;56.258;43.980;2022-11-15T00:41:09;99716.71;;;8.32;77.74
75867;BME280;64513;56.258;43.980;2022-11-15T00:43:37;99719.34;;;8.32;77.74
75867;BME280;64513;56.258;43.980;2022-11-15T00:46:05;99714.08;;;8.32;77.78
75867;BME280;64513;56.258;43.980;2022-11-15T00:48:35;99705.12;;;8.33;77.75
75867;BME280;64513;56.258;43.980;2022-11-15T00:51:04;99698.80;;;8.34;77.72
75867;BME280;64513;56.258;43.980;2022-11-15T00:53:32;99697.72;;;8.35;77.72
75867;BME280;64513;56.258;43.980;2022-11-15T00:56:00;99702.98;;;8.35;77.71
75867;BME280;64513;56.258;43.980;2022-11-15T00:58:28;99706.41;;;8.35;77.69
75867;BME280;64513;56.258;43.980;2022-11-15T01:01:04;99700.36;;;8.35;77.71
75867;BME280;64513;56.258;43.980;2022-11-15T01:03:27;99702.98;;;8.35;77.70
75867;BME280;64513;56.258;43.980;2022-11-15T01:05:58;99704.57;;;8.36;77.70
75867;BME280;64513;56.258;43.980;2022-11-15T01:08:25;99699.30;;;8.36;77.69
75867;BME280;64513;56.258;43.980;2022-11-15T01:10:53;99712.48;;;8.36;77.69
75867;BME280;64513;56.258;43.980;2022-11-15T01:13:21;99703.52;;;8.37;77.67
75867;BME280;64513;56.258;43.980;2022-11-15T01:15:49;99706.95;;;8.37;77.68
75867;BME280;64513;56.258;43.980;2022-11-15T01:18:18;99705.10;;;8.38;77.66
75867;BME280;64513;56.258;43.980;2022-11-15T01:20:46;99705.36;;;8.36;77.65
75867;BME280;64513;56.258;43.980;2022-11-15T01:23:14;99700.89;;;8.37;77.68
75867;BME280;64513;56.258;43.980;2022-11-15T01:25:43;99697.20;;;8.38;77.64
75867;BME280;64513;56.258;43.980;2022-11-15T01:28:11;99700.89;;;8.37;77.64
75867;BME280;64513;56.258;43.980;2022-11-15T01:30:39;99705.10;;;8.38;77.63
75867;BME280;64513;56.258;43.980;2022-11-15T01:33:07;99696.41;;;8.37;77.65
75867;BME280;64513;56.258;43.980;2022-11-15T01:35:38;99697.99;;;8.38;77.63
75867;BME280;64513;56.258;43.980;2022-11-15T01:38:05;99713.01;;;8.38;77.69
75867;BME280;64513;56.258;43.980;2022-11-15T01:40:34;99706.16;;;8.37;77.63
75867;BME280;64513;56.258;43.980;2022-11-15T01:43:34;99709.32;;;8.39;77.63
75867;BME280;64513;56.258;43.980;2022-11-15T01:45:32;99706.69;;;8.39;77.60
75867;BME280;64513;56.258;43.980;2022-11-15T01:48:00;99704.84;;;8.39;77.60
75867;BME280;64513;56.258;43.980;2022-11-15T01:50:29;99703.27;;;8.38;77.63
75867;BME280;64513;56.258;43.980;2022-11-15T01:52:58;99702.47;;;8.38;77.63
75867;BME280;64513;56.258;43.980;2022-11-15T01:55:27;99711.95;;;8.39;77.56
75867;BME280;64513;56.258;43.980;2022-11-15T01:57:57;99708.53;;;8.38;77.56
75867;BME280;64513;56.258;43.980;2022-11-15T02:00:26;99702.47;;;8.38;77.54
75867;BME280;64513;56.258;43.980;2022-11-15T02:02:54;99697.20;;;8.38;77.56
75867;BME280;64513;56.258;43.980;2022-11-15T02:05:22;99696.41;;;8.37;77.53
75867;BME280;64513;56.258;43.980;2022-11-15T02:07:51;99710.11;;;8.39;77.52
75867;BME280;64513;56.258;43.980;2022-11-15T02:10:21;99697.20;;;8.38;77.49
75867;BME280;64513;56.258;43.980;2022-11-15T02:12:50;99705.10;;;8.38;77.54
75867;BME280;64513;56.258;43.980;2022-11-15T02:15:20;99701.42;;;8.39;77.52
75867;BME280;64513;56.258;43.980;2022-11-15T02:23:31;99700.09;;;8.36;77.51
75867;BME280;64513;56.258;43.980;2022-11-15T02:42:26;99695.07;;;8.30;77.59
75867;BME280;64513;56.258;43.980;2022-11-15T02:48:03;99694.54;;;8.28;77.59
75867;BME280;64513;56.258;43.980;2022-11-15T02:50:32;99699.27;;;8.26;77.61
75867;BME280;64513;56.258;43.980;2022-11-15T02:53:01;99685.05;;;8.27;77.63
75867;BME280;64513;56.258;43.980;2022-11-15T03:12:38;99702.70;;;8.26;77.63
75867;BME280;64513;56.258;43.980;2022-11-15T03:17:55;99701.91;;;8.26;77.67
75867;BME280;64513;56.258;43.980;2022-11-15T03:19:50;99699.27;;;8.26;77.65
75867;BME280;64513;56.258;43.980;2022-11-15T03:22:21;99702.95;;;8.25;77.68
75867;BME280;64513;56.258;43.980;2022-11-15T03:30:26;99702.44;;;8.28;77.61
75867;BME280;64513;56.258;43.980;2022-11-15T03:32:55;99707.17;;;8.26;77.56
75867;BME280;64513;56.258;43.980;2022-11-15T03:35:25;99704.55;;;8.26;77.62
75867;BME280;64513;56.258;43.980;2022-11-15T03:37:56;99707.71;;;8.28;77.56
75867;BME280;64513;56.258;43.980;2022-11-15T03:46:01;99708.50;;;8.28;77.58
75867;BME280;64513;56.258;43.980;2022-11-15T03:51:18;99715.08;;;8.26;77.62
75867;BME280;64513;56.258;43.980;2022-11-15T03:53:47;99720.35;;;8.26;77.57
75867;BME280;64513;56.258;43.980;2022-11-15T03:56:15;99731.94;;;8.25;77.66
75867;BME280;64513;56.258;43.980;2022-11-15T03:58:43;99725.62;;;8.26;77.65
75867;BME280;64513;56.258;43.980;2022-11-15T04:01:12;99725.62;;;8.26;77.62
75867;BME280;64513;56.258;43.980;2022-11-15T04:03:40;99726.16;;;8.28;77.63
75867;BME280;64513;56.258;43.980;2022-11-15T04:06:08;99726.94;;;8.28;77.59
75867;BME280;64513;56.258;43.980;2022-11-15T04:08:37;99725.89;;;8.29;77.57
75867;BME280;64513;56.258;43.980;2022-11-15T04:11:05;99733.80;;;8.29;77.55
75867;BME280;64513;56.258;43.980;2022-11-15T04:13:33;99725.63;;;8.31;77.54
75867;BME280;64513;56.258;43.980;2022-11-15T04:16:01;99738.02;;;8.30;77.57
75867;BME280;64513;56.258;43.980;2022-11-15T04:18:30;99730.91;;;8.31;77.62
75867;BME280;64513;56.258;43.980;2022-11-15T04:20:58;99735.16;;;8.32;77.62
75867;BME280;64513;56.258;43.980;2022-11-15T04:23:46;99731.95;;;8.30;77.61
75867;BME280;64513;56.258;43.980;2022-11-15T04:26:34;99729.32;;;8.30;77.62
75867;BME280;64513;56.258;43.980;2022-11-15T04:29:03;99714.56;;;8.29;77.62
75867;BME280;64513;56.258;43.980;2022-11-15T04:31:51;99725.09;;;8.29;77.72
75867;BME280;64513;56.258;43.980;2022-11-15T04:34:19;99720.88;;;8.28;77.68
75867;BME280;64513;56.258;43.980;2022-11-15T04:36:47;99724.31;;;8.28;77.69
75867;BME280;64513;56.258;43.980;2022-11-15T04:39:35;99729.58;;;8.28;77.70
75867;BME280;64513;56.258;43.980;2022-11-15T04:42:04;99734.84;;;8.28;77.68
75867;BME280;64513;56.258;43.980;2022-11-15T04:44:32;99739.33;;;8.28;77.72
75867;BME280;64513;56.258;43.980;2022-11-15T04:47:01;99743.54;;;8.29;77.74
75867;BME280;64513;56.258;43.980;2022-11-15T04:49:30;99738.27;;;8.29;77.77
75867;BME280;64513;56.258;43.980;2022-11-15T04:51:58;99744.87;;;8.31;77.75
75867;BME280;64513;56.258;43.980;2022-11-15T04:54:26;99738.80;;;8.31;77.71
75867;BME280;64513;56.258;43.980;2022-11-15T04:56:55;99750.95;;;8.32;77.72
75867;BME280;64513;56.258;43.980;2022-11-15T04:59:23;99752.55;;;8.33;77.70
75867;BME280;64513;56.258;43.980;2022-11-15T05:01:51;99754.12;;;8.34;77.71
75867;BME280;64513;56.258;43.980;2022-11-15T05:04:19;99750.41;;;8.35;77.67
75867;BME280;64513;56.258;43.980;2022-11-15T05:06:49;99748.57;;;8.35;77.67
75867;BME280;64513;56.258;43.980;2022-11-15T05:09:18;99753.84;;;8.35;77.61
75867;BME280;64513;56.258;43.980;2022-11-15T05:11:47;99759.90;;;8.36;77.60
75867;BME280;64513;56.258;43.980;2022-11-15T05:14:15;99753.58;;;8.37;77.62
75867;BME280;64513;56.258;43.980;2022-11-15T05:16:44;99755.16;;;8.38;77.57
75867;BME280;64513;56.258;43.980;2022-11-15T05:19:12;99758.59;;;8.38;77.64
75867;BME280;64513;56.258;43.980;2022-11-15T05:21:41;99756.75;;;8.39;77.55
75867;BME280;64513;56.258;43.980;2022-11-15T05:24:29;99757.55;;;8.39;77.58
75867;BME280;64513;56.258;43.980;2022-11-15T05:26:57;99759.92;;;8.41;77.57
75867;BME280;64513;56.258;43.980;2022-11-15T05:32:13;99766.77;;;8.42;77.63
75867;BME280;64513;56.258;43.980;2022-11-15T05:34:42;99772.83;;;8.42;77.58
75867;BME280;64513;56.258;43.980;2022-11-15T05:37:10;99767.56;;;8.42;77.55
75867;BME280;64513;56.258;43.980;2022-11-15T05:39:39;99780.48;;;8.44;77.64
75867;BME280;64513;56.258;43.980;2022-11-15T05:44:55;99769.42;;;8.47;77.62
75867;BME280;64513;56.258;43.980;2022-11-15T05:47:25;99773.64;;;8.48;77.64
75867;BME280;64513;56.258;43.980;2022-11-15T05:49:54;99772.59;;;8.49;77.67
75867;BME280;64513;56.258;43.980;2022-11-15T05:52:24;99785.23;;;8.57;78.74
75867;BME280;64513;56.258;43.980;2022-11-15T05:54:53;99791.04;;;8.69;78.75
75867;BME280;64513;56.258;43.980;2022-11-15T05:57:22;99783.14;;;8.74;78.00
75867;BME280;64513;56.258;43.980;2022-11-15T05:59:50;99783.41;;;8.78;77.34
75867;BME280;64513;56.258;43.980;2022-11-15T06:02:18;99791.06;;;8.79;76.69
75867;BME280;64513;56.258;43.980;2022-11-15T06:04:47;99778.67;;;8.80;75.95
75867;BME280;64513;56.258;43.980;2022-11-15T06:07:15;99786.30;;;8.82;75.21
75867;BME280;64513;56.258;43.980;2022-11-15T06:09:43;99789.22;;;8.80;74.69
75867;BME280;64513;56.258;43.980;2022-11-15T06:12:12;99789.74;;;8.77;74.34
75867;BME280;64513;56.258;43.980;2022-11-15T06:14:40;99784.98;;;8.74;74.05
75867;BME280;64513;56.258;43.980;2022-11-15T06:17:08;99789.47;;;8.73;73.88
75867;BME280;64513;56.258;43.980;2022-11-15T06:19:36;99789.73;;;8.72;73.64
75867;BME280;64513;56.258;43.980;2022-11-15T06:22:05;99782.88;;;8.91;77.38
75867;BME280;64513;56.258;43.980;2022-11-15T06:24:35;99793.16;;;9.03;78.18
75867;BME280;64513;56.258;43.980;2022-11-15T06:27:03;99800.54;;;9.01;76.36
75867;BME280;64513;56.258;43.980;2022-11-15T06:29:31;99799.76;;;8.90;74.94
75867;BME280;64513;56.258;43.980;2022-11-15T06:32:00;99795.80;;;8.77;73.32
75867;BME280;64513;56.258;43.980;2022-11-15T06:34:28;99790.01;;;8.65;72.90
75867;BME280;64513;56.258;43.980;2022-11-15T06:36:56;99794.71;;;8.53;72.92
75867;BME280;64513;56.258;43.980;2022-11-15T06:39:24;99801.82;;;8.42;72.73
75867;BME280;64513;56.258;43.980;2022-11-15T06:41:53;99789.42;;;8.33;72.68
75867;BME280;64513;56.258;43.980;2022-11-15T06:44:21;99798.67;;;8.56;78.71
75867;BME280;64513;56.258;43.980;2022-11-15T06:46:49;99801.59;;;8.69;78.52
75867;BME280;64513;56.258;43.980;2022-11-15T06:49:17;99801.59;;;8.74;76.93
75867;BME280;64513;56.258;43.980;2022-11-15T06:51:46;99800.55;;;8.75;75.27
75867;BME280;64513;56.258;43.980;2022-11-15T06:54:14;99792.63;;;8.70;74.04
75867;BME280;64513;56.258;43.980;2022-11-15T06:56:42;99803.69;;;8.67;73.07
75867;BME280;64513;56.258;43.980;2022-11-15T06:59:11;99802.91;;;8.62;72.40
75867;BME280;64513;56.258;43.980;2022-11-15T07:01:39;99801.05;;;8.57;71.94
75867;BME280;64513;56.258;43.980;2022-11-15T07:04:07;99803.67;;;8.52;71.90
75867;BME280;64513;56.258;43.980;2022-11-15T07:06:35;99811.59;;;8.47;71.35
75867;BME280;64513;56.258;43.980;2022-11-15T07:09:04;99802.08;;;8.41;71.49
75867;BME280;64513;56.258;43.980;2022-11-15T07:11:33;99807.86;;;8.38;71.19
75867;BME280;64513;56.258;43.980;2022-11-15T07:14:01;99795.73;;;8.37;71.12
75867;BME280;64513;56.258;43.980;2022-11-15T07:16:30;99798.67;;;8.66;77.90
75867;BME280;64513;56.258;43.980;2022-11-15T07:18:58;99797.64;;;9.02;77.19
75867;BME280;64513;56.258;43.980;2022-11-15T07:21:26;99789.95;;;9.31;76.87
75867;BME280;64513;56.258;43.980;2022-11-15T07:23:55;99794.09;;;9.63;75.57
75867;BME280;64513;56.258;43.980;2022-11-15T07:26:23;99795.09;;;9.82;73.05
75867;BME280;64513;56.258;43.980;2022-11-15T07:28:51;99793.77;;;9.84;69.31
75867;BME280;64513;56.258;43.980;2022-11-15T07:31:20;99796.68;;;9.83;67.29
75867;BME280;64513;56.258;43.980;2022-11-15T07:33:48;99795.10;;;9.77;63.69
75867;BME280;64513;56.258;43.980;2022-11-15T07:36:16;99806.50;;;9.72;66.03
75867;BME280;64513;56.258;43.980;2022-11-15T07:38:45;99794.63;;;9.65;61.92
75867;BME280;64513;56.258;43.980;2022-11-15T07:41:13;99796.78;;;9.53;62.07
75867;BME280;64513;56.258;43.980;2022-11-15T07:43:41;99799.95;;;9.44;63.05
75867;BME280;64513;56.258;43.980;2022-11-15T07:46:10;99797.08;;;9.36;61.59
75867;BME280;64513;56.258;43.980;2022-11-15T07:48:38;99797.89;;;9.26;62.31
75867;BME280;64513;56.258;43.980;2022-11-15T07:51:06;99797.36;;;9.19;60.52
75867;BME280;64513;56.258;43.980;2022-11-15T07:53:35;99795.28;;;9.11;60.98
75867;BME280;64513;56.258;43.980;2022-11-15T07:56:05;99798.96;;;9.05;61.64
75867;BME280;64513;56.258;43.980;2022-11-15T07:58:33;99797.92;;;8.96;61.70
75867;BME280;64513;56.258;43.980;2022-11-15T08:03:49;99800.01;;;8.84;61.24
75867;BME280;64513;56.258;43.980;2022-11-15T08:06:18;99792.12;;;8.78;60.76
75867;BME280;64513;56.258;43.980;2022-11-15T08:08:46;99791.05;;;8.74;62.90
75867;BME280;64513;56.258;43.980;2022-11-15T08:11:15;99783.66;;;8.82;65.39
75867;BME280;64513;56.258;43.980;2022-11-15T08:13:43;99793.17;;;8.77;62.44
75867;BME280;64513;56.258;43.980;2022-11-15T08:16:11;99796.33;;;8.74;61.73
75867;BME280;64513;56.258;43.980;2022-11-15T08:18:40;99790.51;;;8.67;60.74
75867;BME280;64513;56.258;43.980;2022-11-15T08:21:09;99788.68;;;8.63;60.12
75867;BME280;64513;56.258;43.980;2022-11-15T08:23:37;99784.19;;;8.58;61.15
75867;BME280;64513;56.258;43.980;2022-11-15T08:26:06;99786.55;;;8.55;60.31
75867;BME280;64513;56.258;43.980;2022-11-15T08:28:34;99781.55;;;8.48;59.30
75867;BME280;64513;56.258;43.980;2022-11-15T08:31:03;99793.13;;;8.42;60.32
75867;BME280;64513;56.258;43.980;2022-11-15T08:33:31;99791.52;;;8.36;59.41
75867;BME280;64513;56.258;43.980;2022-11-15T08:36:00;99784.64;;;8.30;60.68
75867;BME280;64513;56.258;43.980;2022-11-15T08:38:28;99787.26;;;8.25;60.41
75867;BME280;64513;56.258;43.980;2022-11-15T08:46:33;99782.20;;;8.08;59.54
75867;BME280;64513;56.258;43.980;2022-11-15T08:49:02;99777.98;;;8.02;59.36
75867;BME280;64513;56.258;43.980;2022-11-15T08:51:30;99785.84;;;7.92;58.47
75867;BME280;64513;56.258;43.980;2022-11-15T08:53:59;99782.66;;;7.85;58.90
75867;BME280;64513;56.258;43.980;2022-11-15T08:56:27;99780.00;;;7.80;59.59
75867;BME280;64513;56.258;43.980;2022-11-15T08:58:55;99785.77;;;7.77;59.60
75867;BME280;64513;56.258;43.980;2022-11-15T09:01:24;99783.65;;;7.73;60.47
75867;BME280;64513;56.258;43.980;2022-11-15T09:03:53;99776.30;;;7.70;59.43
75867;BME280;64513;56.258;43.980;2022-11-15T09:06:21;99779.69;;;7.66;60.67
75867;BME280;64513;56.258;43.980;2022-11-15T09:08:50;99773.34;;;7.62;60.12
75867;BME280;64513;56.258;43.980;2022-11-15T09:11:18;99767.00;;;7.58;58.90
75867;BME280;64513;56.258;43.980;2022-11-15T09:13:47;99772.25;;;7.53;58.72
75867;BME280;64513;56.258;43.980;2022-11-15T09:16:16;99782.74;;;7.48;59.60
75867;BME280;64513;56.258;43.980;2022-11-15T09:18:44;99777.73;;;7.46;59.79
75867;BME280;64513;56.258;43.980;2022-11-15T09:21:12;99775.35;;;7.45;60.42
75867;BME280;64513;56.258;43.980;2022-11-15T09:23:41;99782.70;;;7.43;60.04
75867;BME280;64513;56.258;43.980;2022-11-15T09:26:09;99781.37;;;7.40;58.85
75867;BME280;64513;56.258;43.980;2022-11-15T09:28:38;99786.38;;;7.36;59.27
75867;BME280;64513;56.258;43.980;2022-11-15T09:31:07;99789.00;;;7.36;60.29
75867;BME280;64513;56.258;43.980;2022-11-15T09:33:36;99793.72;;;7.34;59.81
75867;BME280;64513;56.258;43.980;2022-11-15T09:36:05;99791.34;;;7.33;60.07
75867;BME280;64513;56.258;43.980;2022-11-15T09:38:34;99781.57;;;7.28;59.14
75867;BME280;64513;56.258;43.980;2022-11-15T09:49:27;99782.02;;;7.15;60.18
75867;BME280;64513;56.258;43.980;2022-11-15T09:51:57;99774.08;;;7.10;59.37
75867;BME280;64513;56.258;43.980;2022-11-15T10:02:36;99776.66;;;7.00;59.27
75867;BME280;64513;56.258;43.980;2022-11-15T10:05:02;99788.00;;;7.48;82.10
75867;BME280;64513;56.258;43.980;2022-11-15T10:07:33;99792.52;;;8.25;72.29
75867;BME280;64513;56.258;43.980;2022-11-15T10:12:49;99796.58;;;8.58;61.22
75867;BME280;64513;56.258;43.980;2022-11-15T10:15:18;99785.75;;;8.44;59.31
75867;BME280;64513;56.258;43.980;2022-11-15T10:23:26;99776.63;;;7.94;58.41
75867;BME280;64513;56.258;43.980;2022-11-15T10:25:55;99774.23;;;7.83;59.04
75867;BME280;64513;56.258;43.980;2022-11-15T10:34:10;99783.83;;;7.52;59.56
75867;BME280;64513;56.258;43.980;2022-11-15T10:36:30;99784.83;;;7.46;60.00
75867;BME280;64513;56.258;43.980;2022-11-15T10:39:00;99777.44;;;7.43;58.92
75867;BME280;64513;56.258;43.980;2022-11-15T10:47:03;99781.56;;;7.23;57.82
75867;BME280;64513;56.258;43.980;2022-11-15T10:49:18;99790.45;;;7.17;59.31
75867;BME280;64513;56.258;43.980;2022-11-15T10:57:06;99779.33;;;7.05;58.42
75867;BME280;64513;56.258;43.980;2022-11-15T10:59:35;99779.83;;;7.02;59.97
75867;BME280;64513;56.258;43.980;2022-11-15T11:04:53;99778.23;;;7.01;60.23
75867;BME280;64513;56.258;43.980;2022-11-15T11:07:22;99776.66;;;7.00;59.72
75867;BME280;64513;56.258;43.980;2022-11-15T11:12:39;99773.98;;;6.95;58.81
75867;BME280;64513;56.258;43.980;2022-11-15T11:26:08;99778.08;;;6.81;59.16
75867;BME280;64513;56.258;43.980;2022-11-15T11:31:24;99786.20;;;6.79;59.96
75867;BME280;64513;56.258;43.980;2022-11-15T11:36:39;99780.38;;;6.72;58.80
75867;BME280;64513;56.258;43.980;2022-11-15T11:47:35;99787.66;;;6.65;58.73
75867;BME280;64513;56.258;43.980;2022-11-15T12:01:32;99770.40;;;6.42;58.43
75867;BME280;64513;56.258;43.980;2022-11-15T12:17:10;99776.05;;;6.29;58.20
75867;BME280;64513;56.258;43.980;2022-11-15T12:19:39;99774.46;;;6.28;58.96
75867;BME280;64513;56.258;43.980;2022-11-15T12:27:46;99774.34;;;6.18;59.54
75867;BME280;64513;56.258;43.980;2022-11-15T12:33:02;99777.20;;;6.16;59.25
75867;BME280;64513;56.258;43.980;2022-11-15T12:38:49;99780.08;;;6.15;59.60
75867;BME280;64513;56.258;43.980;2022-11-15T12:57:44;99787.34;;;9.16;75.89
75867;BME280;64513;56.258;43.980;2022-11-15T13:21:03;99757.33;;;23.73;45.47
75867;BME280;64513;56.258;43.980;2022-11-15T13:29:00;99756.45;;;25.33;44.96
75867;BME280;64513;56.258;43.980;2022-11-15T13:32:21;99762.77;;;26.16;45.29
75867;BME280;64513;56.258;43.980;2022-11-15T13:34:50;99758.27;;;26.49;40.69
75867;BME280;64513;56.258;43.980;2022-11-15T13:37:39;99760.67;;;26.75;48.23
75867;BME280;64513;56.258;43.980;2022-11-15T13:41:59;99751.43;;;27.05;43.84
75867;BME280;64513;56.258;43.980;2022-11-15T13:49:34;99757.64;;;27.23;42.38
75867;BME280;64513;56.258;43.980;2022-11-15T14:06:20;99742.25;;;8.36;43.40
75867;BME280;64513;56.258;43.980;2022-11-15T14:11:51;99747.07;;;4.03;52.12
75867;BME280;64513;56.258;43.980;2022-11-15T14:14:15;99742.92;;;2.80;54.26
75867;BME280;64513;56.258;43.980;2022-11-15T14:22:14;99744.73;;;0.80;60.32
75867;BME280;64513;56.258;43.980;2022-11-15T14:24:39;99747.55;;;0.54;61.39
75867;BME280;64513;56.258;43.980;2022-11-15T14:32:53;99742.03;;;0.44;61.12
75867;BME280;64513;56.258;43.980;2022-11-15T14:35:20;99736.95;;;0.24;62.68
75867;BME280;64513;56.258;43.980;2022-11-15T14:37:44;99739.80;;;0.16;62.65
75867;BME280;64513;56.258;43.980;2022-11-15T14:42:54;99737.05;;;0.04;63.45
75867;BME280;64513;56.258;43.980;2022-11-15T14:45:21;99727.99;;;-0.25;64.25
75867;BME280;64513;56.258;43.980;2022-11-15T14:47:46;99732.39;;;-0.25;64.07
75867;BME280;64513;56.258;43.980;2022-11-15T14:50:30;99728.91;;;-0.57;65.72
75867;BME280;64513;56.258;43.980;2022-11-15T14:52:55;99732.91;;;-0.61;66.45
75867;BME280;64513;56.258;43.980;2022-11-15T14:58:06;99734.17;;;-0.90;67.05
75867;BME280;64513;56.258;43.980;2022-11-15T15:00:32;99723.62;;;-0.95;67.17
75867;BME280;64513;56.258;43.980;2022-11-15T15:02:57;99723.42;;;-1.00;67.61
75867;BME280;64513;56.258;43.980;2022-11-15T15:05:24;99733.41;;;-0.97;67.06
75867;BME280;64513;56.258;43.980;2022-11-15T15:07:50;99735.80;;;-1.02;67.61
75867;BME280;64513;56.258;43.980;2022-11-15T15:10:37;99732.58;;;-0.91;66.89
75867;BME280;64513;56.258;43.980;2022-11-15T15:13:02;99737.97;;;-0.86;67.26
75867;BME280;64513;56.258;43.980;2022-11-15T15:18:12;99733.77;;;-0.87;67.17
75867;BME280;64513;56.258;43.980;2022-11-15T15:20:38;99737.00;;;-0.98;67.76
75867;BME280;64513;56.258;43.980;2022-11-15T15:23:02;99738.99;;;-1.00;67.81
75867;BME280;64513;56.258;43.980;2022-11-15T15:28:14;99740.59;;;-1.26;68.61
75867;BME280;64513;56.258;43.980;2022-11-15T15:30:40;99737.20;;;-1.33;69.42
75867;BME280;64513;56.258;43.980;2022-11-15T15:33:05;99732.23;;;-1.28;69.78
75867;BME280;64513;56.258;43.980;2022-11-15T15:35:31;99742.20;;;-1.12;69.71
75867;BME280;64513;56.258;43.980;2022-11-15T15:37:56;99740.61;;;-1.13;69.77
75867;BME280;64513;56.258;43.980;2022-11-15T15:40:22;99745.20;;;-1.28;70.66
75867;BME280;64513;56.258;43.980;2022-11-15T15:42:48;99736.42;;;-1.27;70.77
75867;BME280;64513;56.258;43.980;2022-11-15T15:45:15;99751.17;;;-1.21;71.04
75867;BME280;64513;56.258;43.980;2022-11-15T15:47:40;99733.41;;;-1.24;71.20
75867;BME280;64513;56.258;43.980;2022-11-15T15:52:50;99740.78;;;-1.08;70.88
75867;BME280;64513;56.258;43.980;2022-11-15T15:55:15;99742.00;;;-1.30;71.50
75867;BME280;64513;56.258;43.980;2022-11-15T15:57:39;99734.61;;;-1.20;71.34
75867;BME280;64513;56.258;43.980;2022-11-15T16:00:05;99738.78;;;-1.25;71.62
75867;BME280;64513;56.258;43.980;2022-11-15T16:02:29;99734.20;;;-1.23;71.52
75867;BME280;64513;56.258;43.980;2022-11-15T16:04:53;99735.82;;;-1.29;71.69
75867;BME280;64513;56.258;43.980;2022-11-15T16:07:20;99739.39;;;-1.23;71.35
75867;BME280;64513;56.258;43.980;2022-11-15T16:10:25;99738.01;;;-1.13;71.09
75867;BME280;64513;56.258;43.980;2022-11-15T16:12:50;99740.80;;;-1.14;70.79
75867;BME280;64513;56.258;43.980;2022-11-15T16:15:14;99735.80;;;-1.02;70.42
75867;BME280;64513;56.258;43.980;2022-11-15T16:17:46;99731.38;;;-0.82;69.71
75867;BME280;64513;56.258;43.980;2022-11-15T16:20:06;99736.81;;;-1.17;70.73
75867;BME280;64513;56.258;43.980;2022-11-15T16:22:30;99737.80;;;-1.18;71.58
75867;BME280;64513;56.258;43.980;2022-11-15T16:24:55;99739.02;;;-1.27;72.46
75867;BME280;64513;56.258;43.980;2022-11-15T16:27:20;99728.42;;;-1.19;71.42
75867;BME280;64513;56.258;43.980;2022-11-15T16:29:46;99733.39;;;-1.04;72.16
75867;BME280;64513;56.258;43.980;2022-11-15T16:32:10;99729.02;;;-1.17;74.33
75867;BME280;64513;56.258;43.980;2022-11-15T16:34:34;99727.82;;;-1.21;75.44
75867;BME280;64513;56.258;43.980;2022-11-15T16:36:58;99724.44;;;-1.15;75.04
75867;BME280;64513;56.258;43.980;2022-11-15T16:39:23;99720.22;;;-1.02;73.96
75867;BME280;64513;56.258;43.980;2022-11-15T16:41:49;99726.22;;;-0.95;75.10
75867;BME280;64513;56.258;43.980;2022-11-15T16:44:13;99724.02;;;-0.98;73.31
75867;BME280;64513;56.258;43.980;2022-11-15T16:49:41;99717.20;;;-0.86;73.47
75867;BME280;64513;56.258;43.980;2022-11-15T16:51:35;99722.20;;;-0.85;74.21
75867;BME280;64513;56.258;43.980;2022-11-15T16:53:59;99723.19;;;-0.86;74.17
75867;BME280;64513;56.258;43.980;2022-11-15T16:56:27;99720.16;;;-0.76;74.14
75867;BME280;64513;56.258;43.980;2022-11-15T16:58:52;99714.17;;;-0.77;72.82
75867;BME280;64513;56.258;43.980;2022-11-15T17:04:05;99720.56;;;-0.66;72.79
75867;BME280;64513;56.258;43.980;2022-11-15T17:06:49;99719.31;;;-0.57;71.13
75867;BME280;64513;56.258;43.980;2022-11-15T17:11:59;99710.13;;;-0.59;72.57
75867;BME280;64513;56.258;43.980;2022-11-15T17:14:25;99711.77;;;-0.65;70.86
75867;BME280;64513;56.258;43.980;2022-11-15T17:16:50;99712.53;;;-0.58;71.65
75867;BME280;64513;56.258;43.980;2022-11-15T17:19:16;99724.06;;;-0.41;72.36
75867;BME280;64513;56.258;43.980;2022-11-15T17:21:42;99715.20;;;-0.26;72.25
75867;BME280;64513;56.258;43.980;2022-11-15T17:24:06;99720.66;;;-0.34;71.56
75867;BME280;64513;56.258;43.980;2022-11-15T17:26:31;99724.45;;;-0.37;70.33
75867;BME280;64513;56.258;43.980;2022-11-15T17:28:55;99719.46;;;-0.39;71.11
75867;BME280;64513;56.258;43.980;2022-11-15T17:31:21;99724.86;;;-0.40;70.55
75867;BME280;64513;56.258;43.980;2022-11-15T17:33:46;99726.66;;;-0.41;71.12
75867;BME280;64513;56.258;43.980;2022-11-15T17:36:11;99720.41;;;-0.26;68.96
75867;BME280;64513;56.258;43.980;2022-11-15T17:38:35;99721.27;;;-0.39;68.57
75867;BME280;64513;56.258;43.980;2022-11-15T17:41:02;99719.31;;;-0.57;68.74
75867;BME280;64513;56.258;43.980;2022-11-15T17:43:27;99726.52;;;-0.59;68.91
75867;BME280;64513;56.258;43.980;2022-11-15T17:45:51;99723.32;;;-0.61;68.83
75867;BME280;64513;56.258;43.980;2022-11-15T17:48:15;99719.96;;;-0.68;69.09